Station Historical Data
Daily Summary for May 20, 2017 Units:  Both    English   Metric
« Previous Day
Next Day »
Daily Weekly Monthly Yearly Custom
  High: Low: Average:
Temperature: 67.5 °F /  19.7 °C 49.1 °F /  9.5 °C 57.2 °F /  14 °C
Dew Point: 46.8 °F /  8.2 °C 34.4 °F /  1.3 °C 41.1 °F /  5.1 °C
Humidity: 78% 42% 56%
Wind Speed: 15.0mph /  24.1km/h - 6.5mph /  10.5km/h
Wind Gust: 22.0mph /  35.4km/h - -
Wind- - ENE
Pressure: 30.32 in /  1026.6 hPa 30.17 in /  1021.6 hPa -
Precipitation: 0.00 in /  0 mm    
Historical Graphs
 
 
Tabular Data for May 20, 2017
Time Temperature Dew Point Pressure Wind Wind Speed Wind Gust Humidity Rainfall Rate (Hourly)
00:00 54.3 °F /  12.4 °C 45.1 °F /  7.3 °C 30.20in /  1022.6hPa NE 2.0mph /  3.2km/h 5.0mph /  8km/h 71% 0.00in /  0mm
00:05 54.1 °F /  12.3 °C 44.9 °F /  7.2 °C 30.20in /  1022.6hPa NE 1.0mph /  1.6km/h 4.0mph /  6.4km/h 71% 0.00in /  0mm
00:10 54.1 °F /  12.3 °C 44.9 °F /  7.2 °C 30.19in /  1022.2hPa NE 1.0mph /  1.6km/h 4.0mph /  6.4km/h 71% 0.00in /  0mm
00:15 54.2 °F /  12.3 °C 44.6 °F /  7 °C 30.19in /  1022.2hPa NE 2.0mph /  3.2km/h 5.0mph /  8km/h 70% 0.00in /  0mm
00:20 54.1 °F /  12.3 °C 44.5 °F /  6.9 °C 30.19in /  1022.2hPa ENE 2.0mph /  3.2km/h 7.0mph /  11.3km/h 70% 0.00in /  0mm
00:25 54.1 °F /  12.3 °C 44.5 °F /  6.9 °C 30.19in /  1022.2hPa ENE 3.0mph /  4.8km/h 7.0mph /  11.3km/h 70% 0.00in /  0mm
00:30 54.1 °F /  12.3 °C 44.9 °F /  7.2 °C 30.19in /  1022.2hPa NE 3.0mph /  4.8km/h 5.0mph /  8km/h 71% 0.00in /  0mm
00:35 53.8 °F /  12.1 °C 44.6 °F /  7 °C 30.18in /  1021.9hPa NE 2.0mph /  3.2km/h 3.0mph /  4.8km/h 71% 0.00in /  0mm
00:40 53.9 °F /  12.2 °C 44.7 °F /  7.1 °C 30.18in /  1021.9hPa NE 2.0mph /  3.2km/h 7.0mph /  11.3km/h 71% 0.00in /  0mm
00:45 53.9 °F /  12.2 °C 44.7 °F /  7.1 °C 30.18in /  1021.9hPa Calm   4.0mph /  6.4km/h 71% 0.00in /  0mm
00:50 53.7 °F /  12.1 °C 44.9 °F /  7.2 °C 30.18in /  1021.9hPa NE 2.0mph /  3.2km/h 6.0mph /  9.7km/h 72% 0.00in /  0mm
00:55 53.6 °F /  12 °C 44.8 °F /  7.1 °C 30.18in /  1021.9hPa Calm   5.0mph /  8km/h 72% 0.00in /  0mm
01:00 53.2 °F /  11.8 °C 44.8 °F /  7.1 °C 30.19in /  1022.2hPa ENE 2.0mph /  3.2km/h 5.0mph /  8km/h 73% 0.00in /  0mm
01:05 53.1 °F /  11.7 °C 44.7 °F /  7.1 °C 30.18in /  1021.9hPa ENE 1.0mph /  1.6km/h 4.0mph /  6.4km/h 73% 0.00in /  0mm
01:10 53.1 °F /  11.7 °C 45.0 °F /  7.2 °C 30.19in /  1022.2hPa NE 2.0mph /  3.2km/h 7.0mph /  11.3km/h 74% 0.00in /  0mm
01:15 53.1 °F /  11.7 °C 45.0 °F /  7.2 °C 30.18in /  1021.9hPa ENE 2.0mph /  3.2km/h 7.0mph /  11.3km/h 74% 0.00in /  0mm
01:20 53.2 °F /  11.8 °C 45.1 °F /  7.3 °C 30.18in /  1021.9hPa ENE 4.0mph /  6.4km/h 10.0mph /  16.1km/h 74% 0.00in /  0mm
01:25 53.2 °F /  11.8 °C 45.5 °F /  7.5 °C 30.19in /  1022.2hPa NE 4.0mph /  6.4km/h 10.0mph /  16.1km/h 75% 0.00in /  0mm
01:30 53.1 °F /  11.7 °C 45.4 °F /  7.4 °C 30.19in /  1022.2hPa NE 4.0mph /  6.4km/h 5.0mph /  8km/h 75% 0.00in /  0mm
01:35 53.1 °F /  11.7 °C 45.4 °F /  7.4 °C 30.18in /  1021.9hPa NE 3.0mph /  4.8km/h 7.0mph /  11.3km/h 75% 0.00in /  0mm
01:40 53.0 °F /  11.7 °C 45.3 °F /  7.4 °C 30.18in /  1021.9hPa NE 4.0mph /  6.4km/h 9.0mph /  14.5km/h 75% 0.00in /  0mm
01:45 53.0 °F /  11.7 °C 45.6 °F /  7.6 °C 30.18in /  1021.9hPa ENE 3.0mph /  4.8km/h 8.0mph /  12.9km/h 76% 0.00in /  0mm
01:50 52.9 °F /  11.6 °C 45.5 °F /  7.5 °C 30.19in /  1022.2hPa NE 3.0mph /  4.8km/h 11.0mph /  17.7km/h 76% 0.00in /  0mm
01:55 52.9 °F /  11.6 °C 45.5 °F /  7.5 °C 30.19in /  1022.2hPa NNW 4.0mph /  6.4km/h 8.0mph /  12.9km/h 76% 0.00in /  0mm
02:00 52.7 °F /  11.5 °C 45.3 °F /  7.4 °C 30.18in /  1021.9hPa NE 2.0mph /  3.2km/h 8.0mph /  12.9km/h 76% 0.00in /  0mm
02:05 52.6 °F /  11.4 °C 45.2 °F /  7.3 °C 30.18in /  1021.9hPa NE 4.0mph /  6.4km/h 10.0mph /  16.1km/h 76% 0.00in /  0mm
02:10 52.5 °F /  11.4 °C 45.2 °F /  7.3 °C 30.19in /  1022.2hPa NE 5.0mph /  8km/h 11.0mph /  17.7km/h 76% 0.00in /  0mm
02:15 52.4 °F /  11.3 °C 45.4 °F /  7.4 °C 30.19in /  1022.2hPa NE 2.0mph /  3.2km/h 12.0mph /  19.3km/h 77% 0.00in /  0mm
02:20 52.4 °F /  11.3 °C 45.7 °F /  7.6 °C 30.18in /  1021.9hPa ENE 3.0mph /  4.8km/h 10.0mph /  16.1km/h 78% 0.00in /  0mm
02:25 52.3 °F /  11.3 °C 45.6 °F /  7.6 °C 30.18in /  1021.9hPa NE 6.0mph /  9.7km/h 11.0mph /  17.7km/h 78% 0.00in /  0mm
02:30 52.3 °F /  11.3 °C 45.6 °F /  7.6 °C 30.19in /  1022.2hPa NE 6.0mph /  9.7km/h 11.0mph /  17.7km/h 78% 0.00in /  0mm
02:35 52.3 °F /  11.3 °C 45.6 °F /  7.6 °C 30.18in /  1021.9hPa NE 6.0mph /  9.7km/h 11.0mph /  17.7km/h 78% 0.00in /  0mm
02:40 52.3 °F /  11.3 °C 45.3 °F /  7.4 °C 30.17in /  1021.6hPa ENE 5.0mph /  8km/h 10.0mph /  16.1km/h 77% 0.00in /  0mm
02:45 52.2 °F /  11.2 °C 45.2 °F /  7.3 °C 30.17in /  1021.6hPa ENE 6.0mph /  9.7km/h 13.0mph /  20.9km/h 77% 0.00in /  0mm
02:55 52.1 °F /  11.2 °C 44.8 °F /  7.1 °C 30.19in /  1022.2hPa NE 9.0mph /  14.5km/h 9.0mph /  14.5km/h 76% 0.00in /  0mm
03:00 52.1 °F /  11.2 °C 44.8 °F /  7.1 °C 30.20in /  1022.6hPa NE 4.0mph /  6.4km/h 10.0mph /  16.1km/h 76% 0.00in /  0mm
03:05 52.0 °F /  11.1 °C 44.7 °F /  7.1 °C 30.20in /  1022.6hPa NE 5.0mph /  8km/h 9.0mph /  14.5km/h 76% 0.00in /  0mm
03:10 51.9 °F /  11.1 °C 44.6 °F /  7 °C 30.20in /  1022.6hPa NE 3.0mph /  4.8km/h 12.0mph /  19.3km/h 76% 0.00in /  0mm
03:15 51.9 °F /  11.1 °C 44.9 °F /  7.2 °C 30.20in /  1022.6hPa NE 2.0mph /  3.2km/h 9.0mph /  14.5km/h 77% 0.00in /  0mm
03:20 51.8 °F /  11 °C 44.8 °F /  7.1 °C 30.20in /  1022.6hPa NNE 5.0mph /  8km/h 13.0mph /  20.9km/h 77% 0.00in /  0mm
03:25 51.7 °F /  10.9 °C 44.7 °F /  7.1 °C 30.20in /  1022.6hPa NE 4.0mph /  6.4km/h 10.0mph /  16.1km/h 77% 0.00in /  0mm
03:30 51.6 °F /  10.9 °C 44.6 °F /  7 °C 30.20in /  1022.6hPa NE 6.0mph /  9.7km/h 14.0mph /  22.5km/h 77% 0.00in /  0mm
03:35 51.5 °F /  10.8 °C 44.5 °F /  6.9 °C 30.21in /  1022.9hPa NE 6.0mph /  9.7km/h 14.0mph /  22.5km/h 77% 0.00in /  0mm
03:40 51.5 °F /  10.8 °C 44.2 °F /  6.8 °C 30.21in /  1022.9hPa NE 6.0mph /  9.7km/h 13.0mph /  20.9km/h 76% 0.00in /  0mm
03:45 51.3 °F /  10.7 °C 43.6 °F /  6.4 °C 30.22in /  1023.2hPa NE 6.0mph /  9.7km/h 14.0mph /  22.5km/h 75% 0.00in /  0mm
03:50 51.3 °F /  10.7 °C 42.6 °F /  5.9 °C 30.22in /  1023.2hPa NE 7.0mph /  11.3km/h 14.0mph /  22.5km/h 72% 0.00in /  0mm
03:55 51.2 °F /  10.7 °C 42.1 °F /  5.6 °C 30.22in /  1023.2hPa NE 6.0mph /  9.7km/h 14.0mph /  22.5km/h 71% 0.00in /  0mm
04:00 51.3 °F /  10.7 °C 41.1 °F /  5.1 °C 30.23in /  1023.6hPa NE 9.0mph /  14.5km/h 14.0mph /  22.5km/h 68% 0.00in /  0mm
04:05 51.3 °F /  10.7 °C 39.5 °F /  4.2 °C 30.22in /  1023.2hPa NE 10.0mph /  16.1km/h 16.0mph /  25.7km/h 64% 0.00in /  0mm
04:10 51.4 °F /  10.8 °C 38.4 °F /  3.6 °C 30.23in /  1023.6hPa NE 8.0mph /  12.9km/h 15.0mph /  24.1km/h 61% 0.00in /  0mm
04:15 51.3 °F /  10.7 °C 37.9 °F /  3.3 °C 30.22in /  1023.2hPa NE 5.0mph /  8km/h 14.0mph /  22.5km/h 60% 0.00in /  0mm
04:20 51.3 °F /  10.7 °C 37.4 °F /  3 °C 30.23in /  1023.6hPa NE 9.0mph /  14.5km/h 14.0mph /  22.5km/h 59% 0.00in /  0mm
04:25 51.3 °F /  10.7 °C 37.0 °F /  2.8 °C 30.23in /  1023.6hPa NE 8.0mph /  12.9km/h 15.0mph /  24.1km/h 58% 0.00in /  0mm
04:30 51.2 °F /  10.7 °C 36.9 °F /  2.7 °C 30.23in /  1023.6hPa NE 8.0mph /  12.9km/h 16.0mph /  25.7km/h 58% 0.00in /  0mm
04:35 51.2 °F /  10.7 °C 36.5 °F /  2.5 °C 30.23in /  1023.6hPa NE 8.0mph /  12.9km/h 16.0mph /  25.7km/h 57% 0.00in /  0mm
04:40 51.1 °F /  10.6 °C 36.4 °F /  2.4 °C 30.23in /  1023.6hPa NE 9.0mph /  14.5km/h 17.0mph /  27.4km/h 57% 0.00in /  0mm
04:45 51.1 °F /  10.6 °C 36.4 °F /  2.4 °C 30.23in /  1023.6hPa NE 9.0mph /  14.5km/h 17.0mph /  27.4km/h 57% 0.00in /  0mm
04:50 51.0 °F /  10.6 °C 36.3 °F /  2.4 °C 30.24in /  1023.9hPa NE 6.0mph /  9.7km/h 16.0mph /  25.7km/h 57% 0.00in /  0mm
05:00 50.8 °F /  10.4 °C 35.7 °F /  2.1 °C 30.25in /  1024.3hPa NE 8.0mph /  12.9km/h 16.0mph /  25.7km/h 56% 0.00in /  0mm
05:05 50.7 °F /  10.4 °C 35.6 °F /  2 °C 30.24in /  1023.9hPa NE 9.0mph /  14.5km/h 16.0mph /  25.7km/h 56% 0.00in /  0mm
05:10 50.5 °F /  10.3 °C 35.4 °F /  1.9 °C 30.25in /  1024.3hPa NE 9.0mph /  14.5km/h 14.0mph /  22.5km/h 56% 0.00in /  0mm
05:15 50.4 °F /  10.2 °C 35.3 °F /  1.8 °C 30.25in /  1024.3hPa ENE 10.0mph /  16.1km/h 13.0mph /  20.9km/h 56% 0.00in /  0mm
05:20 50.3 °F /  10.2 °C 35.2 °F /  1.8 °C 30.26in /  1024.6hPa NE 7.0mph /  11.3km/h 17.0mph /  27.4km/h 56% 0.00in /  0mm
05:25 50.1 °F /  10.1 °C 35.0 °F /  1.7 °C 30.25in /  1024.3hPa NE 8.0mph /  12.9km/h 17.0mph /  27.4km/h 56% 0.00in /  0mm
05:30 50.0 °F /  10 °C 34.9 °F /  1.6 °C 30.26in /  1024.6hPa NE 9.0mph /  14.5km/h 16.0mph /  25.7km/h 56% 0.00in /  0mm
05:35 49.9 °F /  9.9 °C 34.8 °F /  1.6 °C 30.26in /  1024.6hPa NE 9.0mph /  14.5km/h 14.0mph /  22.5km/h 56% 0.00in /  0mm
05:40 49.9 °F /  9.9 °C 34.8 °F /  1.6 °C 30.26in /  1024.6hPa NNE 8.0mph /  12.9km/h 12.0mph /  19.3km/h 56% 0.00in /  0mm
05:45 49.8 °F /  9.9 °C 34.7 °F /  1.5 °C 30.26in /  1024.6hPa NE 12.0mph /  19.3km/h 15.0mph /  24.1km/h 56% 0.00in /  0mm
05:50 49.7 °F /  9.8 °C 34.6 °F /  1.4 °C 30.26in /  1024.6hPa ENE 13.0mph /  20.9km/h 13.0mph /  20.9km/h 56% 0.00in /  0mm
05:55 49.6 °F /  9.8 °C 34.5 °F /  1.4 °C 30.26in /  1024.6hPa NE 8.0mph /  12.9km/h 16.0mph /  25.7km/h 56% 0.00in /  0mm
06:00 49.5 °F /  9.7 °C 34.4 °F /  1.3 °C 30.26in /  1024.6hPa NE 8.0mph /  12.9km/h 16.0mph /  25.7km/h 56% 0.00in /  0mm
06:05 49.5 °F /  9.7 °C 34.4 °F /  1.3 °C 30.26in /  1024.6hPa NE 8.0mph /  12.9km/h 15.0mph /  24.1km/h 56% 0.00in /  0mm
06:10 49.3 °F /  9.6 °C 34.7 °F /  1.5 °C 30.26in /  1024.6hPa NE 7.0mph /  11.3km/h 14.0mph /  22.5km/h 57% 0.00in /  0mm
06:15 49.3 °F /  9.6 °C 35.1 °F /  1.7 °C 30.27in /  1024.9hPa NE 7.0mph /  11.3km/h 14.0mph /  22.5km/h 58% 0.00in /  0mm
06:20 49.3 °F /  9.6 °C 35.1 °F /  1.7 °C 30.27in /  1024.9hPa NE 7.0mph /  11.3km/h 18.0mph /  29km/h 58% 0.00in /  0mm
06:25 49.3 °F /  9.6 °C 35.1 °F /  1.7 °C 30.27in /  1024.9hPa ENE 4.0mph /  6.4km/h 16.0mph /  25.7km/h 58% 0.00in /  0mm
06:30 49.2 °F /  9.6 °C 35.0 °F /  1.7 °C 30.28in /  1025.3hPa NE 13.0mph /  20.9km/h 16.0mph /  25.7km/h 58% 0.00in /  0mm
06:35 49.3 °F /  9.6 °C 35.1 °F /  1.7 °C 30.28in /  1025.3hPa East 13.0mph /  20.9km/h 15.0mph /  24.1km/h 58% 0.00in /  0mm
06:40 49.3 °F /  9.6 °C 35.1 °F /  1.7 °C 30.28in /  1025.3hPa ESE 7.0mph /  11.3km/h 18.0mph /  29km/h 58% 0.00in /  0mm
06:45 49.3 °F /  9.6 °C 35.1 °F /  1.7 °C 30.28in /  1025.3hPa NNE 9.0mph /  14.5km/h 22.0mph /  35.4km/h 58% 0.00in /  0mm
06:50 49.2 °F /  9.6 °C 35.5 °F /  1.9 °C 30.28in /  1025.3hPa East 11.0mph /  17.7km/h 17.0mph /  27.4km/h 59% 0.00in /  0mm
06:55 49.2 °F /  9.6 °C 35.5 °F /  1.9 °C 30.28in /  1025.3hPa NE 8.0mph /  12.9km/h 17.0mph /  27.4km/h 59% 0.00in /  0mm
07:00 49.1 °F /  9.5 °C 35.4 °F /  1.9 °C 30.28in /  1025.3hPa NE 8.0mph /  12.9km/h 16.0mph /  25.7km/h 59% 0.00in /  0mm
07:05 49.1 °F /  9.5 °C 35.4 °F /  1.9 °C 30.29in /  1025.6hPa NE 8.0mph /  12.9km/h 17.0mph /  27.4km/h 59% 0.00in /  0mm
07:10 49.1 °F /  9.5 °C 35.8 °F /  2.1 °C 30.29in /  1025.6hPa NE 9.0mph /  14.5km/h 18.0mph /  29km/h 60% 0.00in /  0mm
07:15 49.1 °F /  9.5 °C 35.8 °F /  2.1 °C 30.30in /  1026hPa ENE 5.0mph /  8km/h 13.0mph /  20.9km/h 60% 0.00in /  0mm
07:20 49.2 °F /  9.6 °C 35.9 °F /  2.2 °C 30.30in /  1026hPa ENE 11.0mph /  17.7km/h 16.0mph /  25.7km/h 60% 0.00in /  0mm
07:25 49.2 °F /  9.6 °C 35.9 °F /  2.2 °C 30.30in /  1026hPa NE 9.0mph /  14.5km/h 18.0mph /  29km/h 60% 0.00in /  0mm
07:30 49.2 °F /  9.6 °C 35.9 °F /  2.2 °C 30.29in /  1025.6hPa ENE 10.0mph /  16.1km/h 20.0mph /  32.2km/h 60% 0.00in /  0mm
07:35 49.4 °F /  9.7 °C 36.5 °F /  2.5 °C 30.30in /  1026hPa ENE 7.0mph /  11.3km/h 20.0mph /  32.2km/h 61% 0.00in /  0mm
07:40 49.4 °F /  9.7 °C 36.1 °F /  2.3 °C 30.30in /  1026hPa ENE 14.0mph /  22.5km/h 15.0mph /  24.1km/h 60% 0.00in /  0mm
07:45 49.5 °F /  9.7 °C 36.6 °F /  2.6 °C 30.31in /  1026.3hPa NE 4.0mph /  6.4km/h 16.0mph /  25.7km/h 61% 0.00in /  0mm
07:50 49.6 °F /  9.8 °C 36.7 °F /  2.6 °C 30.31in /  1026.3hPa ESE 8.0mph /  12.9km/h 15.0mph /  24.1km/h 61% 0.00in /  0mm
07:55 49.6 °F /  9.8 °C 36.3 °F /  2.4 °C 30.31in /  1026.3hPa NE 8.0mph /  12.9km/h 17.0mph /  27.4km/h 60% 0.00in /  0mm
08:00 49.8 °F /  9.9 °C 36.5 °F /  2.5 °C 30.31in /  1026.3hPa ENE 9.0mph /  14.5km/h 18.0mph /  29km/h 60% 0.00in /  0mm
08:05 50.3 °F /  10.2 °C 37.4 °F /  3 °C 30.31in /  1026.3hPa ENE 9.0mph /  14.5km/h 18.0mph /  29km/h 61% 0.00in /  0mm
08:10 50.9 °F /  10.5 °C 37.5 °F /  3.1 °C 30.31in /  1026.3hPa ENE 9.0mph /  14.5km/h 17.0mph /  27.4km/h 60% 0.00in /  0mm
08:15 51.2 °F /  10.7 °C 37.8 °F /  3.2 °C 30.31in /  1026.3hPa ENE 4.0mph /  6.4km/h 16.0mph /  25.7km/h 60% 0.00in /  0mm
08:20 51.5 °F /  10.8 °C 37.2 °F /  2.9 °C 30.31in /  1026.3hPa SE 13.0mph /  20.9km/h 17.0mph /  27.4km/h 58% 0.00in /  0mm
08:25 51.4 °F /  10.8 °C 37.1 °F /  2.8 °C 30.32in /  1026.6hPa NE 9.0mph /  14.5km/h 21.0mph /  33.8km/h 58% 0.00in /  0mm
08:30 52.0 °F /  11.1 °C 38.1 °F /  3.4 °C 30.32in /  1026.6hPa ENE 8.0mph /  12.9km/h 21.0mph /  33.8km/h 59% 0.00in /  0mm
08:35 51.5 °F /  10.8 °C 37.2 °F /  2.9 °C 30.32in /  1026.6hPa ENE 8.0mph /  12.9km/h 17.0mph /  27.4km/h 58% 0.00in /  0mm
08:40 52.0 °F /  11.1 °C 37.7 °F /  3.2 °C 30.32in /  1026.6hPa NE 9.0mph /  14.5km/h 17.0mph /  27.4km/h 58% 0.00in /  0mm
08:45 53.0 °F /  11.7 °C 38.2 °F /  3.4 °C 30.32in /  1026.6hPa ENE 5.0mph /  8km/h 14.0mph /  22.5km/h 57% 0.00in /  0mm
08:50 53.2 °F /  11.8 °C 38.4 °F /  3.6 °C 30.32in /  1026.6hPa ENE 9.0mph /  14.5km/h 11.0mph /  17.7km/h 57% 0.00in /  0mm
08:55 53.1 °F /  11.7 °C 38.3 °F /  3.5 °C 30.32in /  1026.6hPa NE 7.0mph /  11.3km/h 13.0mph /  20.9km/h 57% 0.00in /  0mm
09:00 53.4 °F /  11.9 °C 38.1 °F /  3.4 °C 30.31in /  1026.3hPa NE 6.0mph /  9.7km/h 15.0mph /  24.1km/h 56% 0.00in /  0mm
09:05 53.6 °F /  12 °C 38.7 °F /  3.7 °C 30.31in /  1026.3hPa NE 13.0mph /  20.9km/h 16.0mph /  25.7km/h 57% 0.00in /  0mm
09:10 54.3 °F /  12.4 °C 38.5 °F /  3.6 °C 30.31in /  1026.3hPa ENE 4.0mph /  6.4km/h 14.0mph /  22.5km/h 55% 0.00in /  0mm
09:15 53.9 °F /  12.2 °C 37.6 °F /  3.1 °C 30.31in /  1026.3hPa NE 3.0mph /  4.8km/h 14.0mph /  22.5km/h 54% 0.00in /  0mm
09:20 54.4 °F /  12.4 °C 38.6 °F /  3.7 °C 30.31in /  1026.3hPa ENE 4.0mph /  6.4km/h 16.0mph /  25.7km/h 55% 0.00in /  0mm
09:25 54.2 °F /  12.3 °C 37.9 °F /  3.3 °C 30.32in /  1026.6hPa NE 8.0mph /  12.9km/h 21.0mph /  33.8km/h 54% 0.00in /  0mm
09:30 55.3 °F /  12.9 °C 39.9 °F /  4.4 °C 30.32in /  1026.6hPa NE 7.0mph /  11.3km/h 21.0mph /  33.8km/h 56% 0.00in /  0mm
09:35 56.0 °F /  13.3 °C 38.6 °F /  3.7 °C 30.32in /  1026.6hPa ENE 5.0mph /  8km/h 11.0mph /  17.7km/h 52% 0.00in /  0mm
09:40 55.4 °F /  13 °C 37.6 °F /  3.1 °C 30.32in /  1026.6hPa ENE 6.0mph /  9.7km/h 14.0mph /  22.5km/h 51% 0.00in /  0mm
09:45 56.0 °F /  13.3 °C 39.6 °F /  4.2 °C 30.31in /  1026.3hPa ENE 6.0mph /  9.7km/h 14.0mph /  22.5km/h 54% 0.00in /  0mm
09:50 56.4 °F /  13.6 °C 39.5 °F /  4.2 °C 30.31in /  1026.3hPa East 5.0mph /  8km/h 10.0mph /  16.1km/h 53% 0.00in /  0mm
09:55 56.2 °F /  13.4 °C 39.3 °F /  4.1 °C 30.31in /  1026.3hPa ENE 5.0mph /  8km/h 16.0mph /  25.7km/h 53% 0.00in /  0mm
10:00 56.4 °F /  13.6 °C 39.0 °F /  3.9 °C 30.31in /  1026.3hPa East 9.0mph /  14.5km/h 14.0mph /  22.5km/h 52% 0.00in /  0mm
10:05 56.6 °F /  13.7 °C 39.7 °F /  4.3 °C 30.31in /  1026.3hPa ENE 10.0mph /  16.1km/h 13.0mph /  20.9km/h 53% 0.00in /  0mm
10:10 56.8 °F /  13.8 °C 38.9 °F /  3.8 °C 30.31in /  1026.3hPa NNE 7.0mph /  11.3km/h 11.0mph /  17.7km/h 51% 0.00in /  0mm
10:15 57.4 °F /  14.1 °C 39.4 °F /  4.1 °C 30.31in /  1026.3hPa NE 5.0mph /  8km/h 12.0mph /  19.3km/h 51% 0.00in /  0mm
10:20 57.0 °F /  13.9 °C 38.5 °F /  3.6 °C 30.31in /  1026.3hPa East 3.0mph /  4.8km/h 13.0mph /  20.9km/h 50% 0.00in /  0mm
10:25 57.7 °F /  14.3 °C 39.7 °F /  4.3 °C 30.31in /  1026.3hPa NE 10.0mph /  16.1km/h 11.0mph /  17.7km/h 51% 0.00in /  0mm
10:30 58.1 °F /  14.5 °C 40.1 °F /  4.5 °C 30.30in /  1026hPa ENE 6.0mph /  9.7km/h 11.0mph /  17.7km/h 51% 0.00in /  0mm
10:35 58.4 °F /  14.7 °C 40.3 °F /  4.6 °C 30.30in /  1026hPa ENE 6.0mph /  9.7km/h 15.0mph /  24.1km/h 51% 0.00in /  0mm
10:40 58.5 °F /  14.7 °C 39.9 °F /  4.4 °C 30.30in /  1026hPa ENE 6.0mph /  9.7km/h 15.0mph /  24.1km/h 50% 0.00in /  0mm
10:45 58.6 °F /  14.8 °C 39.5 °F /  4.2 °C 30.30in /  1026hPa ENE 7.0mph /  11.3km/h 15.0mph /  24.1km/h 49% 0.00in /  0mm
10:50 58.5 °F /  14.7 °C 39.4 °F /  4.1 °C 30.31in /  1026.3hPa ENE 8.0mph /  12.9km/h 16.0mph /  25.7km/h 49% 0.00in /  0mm
10:55 59.0 °F /  15 °C 40.4 °F /  4.7 °C 30.30in /  1026hPa ENE 7.0mph /  11.3km/h 16.0mph /  25.7km/h 50% 0.00in /  0mm
11:00 58.3 °F /  14.6 °C 40.2 °F /  4.6 °C 30.31in /  1026.3hPa NE 8.0mph /  12.9km/h 17.0mph /  27.4km/h 51% 0.00in /  0mm
11:05 59.6 °F /  15.3 °C 40.4 °F /  4.7 °C 30.31in /  1026.3hPa SE 8.0mph /  12.9km/h 11.0mph /  17.7km/h 49% 0.00in /  0mm
11:10 59.2 °F /  15.1 °C 40.0 °F /  4.4 °C 30.31in /  1026.3hPa NE 12.0mph /  19.3km/h 15.0mph /  24.1km/h 49% 0.00in /  0mm
11:15 59.0 °F /  15 °C 39.9 °F /  4.4 °C 30.31in /  1026.3hPa ENE 9.0mph /  14.5km/h 15.0mph /  24.1km/h 49% 0.00in /  0mm
11:20 60.2 °F /  15.7 °C 41.5 °F /  5.3 °C 30.31in /  1026.3hPa NE 14.0mph /  22.5km/h 21.0mph /  33.8km/h 50% 0.00in /  0mm
11:25 60.3 °F /  15.7 °C 41.6 °F /  5.3 °C 30.30in /  1026hPa NE 5.0mph /  8km/h 16.0mph /  25.7km/h 50% 0.00in /  0mm
11:30 60.2 °F /  15.7 °C 40.4 °F /  4.7 °C 30.30in /  1026hPa NE 4.0mph /  6.4km/h 16.0mph /  25.7km/h 48% 0.00in /  0mm
11:35 60.6 °F /  15.9 °C 41.3 °F /  5.2 °C 30.30in /  1026hPa ENE 7.0mph /  11.3km/h 16.0mph /  25.7km/h 49% 0.00in /  0mm
11:40 60.9 °F /  16.1 °C 42.6 °F /  5.9 °C 30.30in /  1026hPa ENE 8.0mph /  12.9km/h 15.0mph /  24.1km/h 51% 0.00in /  0mm
11:45 61.9 °F /  16.6 °C 41.4 °F /  5.2 °C 30.30in /  1026hPa ENE 7.0mph /  11.3km/h 15.0mph /  24.1km/h 47% 0.00in /  0mm
11:50 61.0 °F /  16.1 °C 40.6 °F /  4.8 °C 30.30in /  1026hPa ENE 7.0mph /  11.3km/h 16.0mph /  25.7km/h 47% 0.00in /  0mm
11:55 60.7 °F /  15.9 °C 41.4 °F /  5.2 °C 30.31in /  1026.3hPa ENE 8.0mph /  12.9km/h 16.0mph /  25.7km/h 49% 0.00in /  0mm
12:00 61.5 °F /  16.4 °C 42.7 °F /  5.9 °C 30.31in /  1026.3hPa NNE 4.0mph /  6.4km/h 14.0mph /  22.5km/h 50% 0.00in /  0mm
12:05 62.3 °F /  16.8 °C 42.3 °F /  5.7 °C 30.30in /  1026hPa East 8.0mph /  12.9km/h 13.0mph /  20.9km/h 48% 0.00in /  0mm
12:10 61.4 °F /  16.3 °C 40.4 °F /  4.7 °C 30.30in /  1026hPa ESE 3.0mph /  4.8km/h 17.0mph /  27.4km/h 46% 0.00in /  0mm
12:15 61.9 °F /  16.6 °C 41.4 °F /  5.2 °C 30.31in /  1026.3hPa SSE 5.0mph /  8km/h 13.0mph /  20.9km/h 47% 0.00in /  0mm
12:20 62.3 °F /  16.8 °C 41.2 °F /  5.1 °C 30.30in /  1026hPa East 9.0mph /  14.5km/h 17.0mph /  27.4km/h 46% 0.00in /  0mm
12:25 62.3 °F /  16.8 °C 40.7 °F /  4.8 °C 30.30in /  1026hPa NE 3.0mph /  4.8km/h 11.0mph /  17.7km/h 45% 0.00in /  0mm
12:30 62.6 °F /  17 °C 43.2 °F /  6.2 °C 30.30in /  1026hPa ENE 6.0mph /  9.7km/h 11.0mph /  17.7km/h 49% 0.00in /  0mm
12:35 63.2 °F /  17.3 °C 40.9 °F /  4.9 °C 30.30in /  1026hPa ENE 5.0mph /  8km/h 11.0mph /  17.7km/h 44% 0.00in /  0mm
12:40 63.0 °F /  17.2 °C 41.9 °F /  5.5 °C 30.30in /  1026hPa ENE 6.0mph /  9.7km/h 11.0mph /  17.7km/h 46% 0.00in /  0mm
12:45 63.5 °F /  17.5 °C 42.3 °F /  5.7 °C 30.30in /  1026hPa ENE 5.0mph /  8km/h 11.0mph /  17.7km/h 46% 0.00in /  0mm
12:50 63.1 °F /  17.3 °C 41.4 °F /  5.2 °C 30.30in /  1026hPa ENE 6.0mph /  9.7km/h 12.0mph /  19.3km/h 45% 0.00in /  0mm
12:55 63.5 °F /  17.5 °C 42.3 °F /  5.7 °C 30.30in /  1026hPa East 5.0mph /  8km/h 15.0mph /  24.1km/h 46% 0.00in /  0mm
13:00 63.2 °F /  17.3 °C 42.1 °F /  5.6 °C 30.30in /  1026hPa ENE 6.0mph /  9.7km/h 15.0mph /  24.1km/h 46% 0.00in /  0mm
13:05 63.9 °F /  17.7 °C 41.5 °F /  5.3 °C 30.30in /  1026hPa ENE 7.0mph /  11.3km/h 13.0mph /  20.9km/h 44% 0.00in /  0mm
13:10 63.5 °F /  17.5 °C 41.8 °F /  5.4 °C 30.30in /  1026hPa NE 5.0mph /  8km/h 13.0mph /  20.9km/h 45% 0.00in /  0mm
13:15 64.3 °F /  17.9 °C 41.3 °F /  5.2 °C 30.29in /  1025.6hPa East 2.0mph /  3.2km/h 10.0mph /  16.1km/h 43% 0.00in /  0mm
13:20 64.8 °F /  18.2 °C 42.9 °F /  6.1 °C 30.29in /  1025.6hPa NE 6.0mph /  9.7km/h 12.0mph /  19.3km/h 45% 0.00in /  0mm
13:25 64.5 °F /  18.1 °C 40.9 °F /  4.9 °C 30.29in /  1025.6hPa NE 2.0mph /  3.2km/h 14.0mph /  22.5km/h 42% 0.00in /  0mm
13:30 64.5 °F /  18.1 °C 42.1 °F /  5.6 °C 30.29in /  1025.6hPa ENE 7.0mph /  11.3km/h 14.0mph /  22.5km/h 44% 0.00in /  0mm
13:35 64.5 °F /  18.1 °C 43.3 °F /  6.3 °C 30.29in /  1025.6hPa ENE 6.0mph /  9.7km/h 14.0mph /  22.5km/h 46% 0.00in /  0mm
13:40 65.3 °F /  18.5 °C 43.4 °F /  6.3 °C 30.28in /  1025.3hPa ENE 5.0mph /  8km/h 14.0mph /  22.5km/h 45% 0.00in /  0mm
13:45 65.7 °F /  18.7 °C 43.8 °F /  6.6 °C 30.29in /  1025.6hPa ENE 5.0mph /  8km/h 13.0mph /  20.9km/h 45% 0.00in /  0mm
13:50 65.6 °F /  18.7 °C 43.7 °F /  6.5 °C 30.28in /  1025.3hPa NE 10.0mph /  16.1km/h 13.0mph /  20.9km/h 45% 0.00in /  0mm
13:55 65.8 °F /  18.8 °C 42.1 °F /  5.6 °C 30.28in /  1025.3hPa ENE 3.0mph /  4.8km/h 12.0mph /  19.3km/h 42% 0.00in /  0mm
14:00 65.7 °F /  18.7 °C 43.2 °F /  6.2 °C 30.28in /  1025.3hPa ENE 1.0mph /  1.6km/h 9.0mph /  14.5km/h 44% 0.00in /  0mm
14:05 66.4 °F /  19.1 °C 42.6 °F /  5.9 °C 30.28in /  1025.3hPa ENE 5.0mph /  8km/h 16.0mph /  25.7km/h 42% 0.00in /  0mm
14:10 65.8 °F /  18.8 °C 42.1 °F /  5.6 °C 30.27in /  1024.9hPa ENE 2.0mph /  3.2km/h 13.0mph /  20.9km/h 42% 0.00in /  0mm
14:15 65.7 °F /  18.7 °C 42.0 °F /  5.6 °C 30.27in /  1024.9hPa ENE 7.0mph /  11.3km/h 18.0mph /  29km/h 42% 0.00in /  0mm
14:20 66.1 °F /  18.9 °C 43.5 °F /  6.4 °C 30.27in /  1024.9hPa ENE 5.0mph /  8km/h 12.0mph /  19.3km/h 44% 0.00in /  0mm
14:25 66.8 °F /  19.3 °C 43.6 °F /  6.4 °C 30.27in /  1024.9hPa ENE 4.0mph /  6.4km/h 12.0mph /  19.3km/h 43% 0.00in /  0mm
14:30 67.5 °F /  19.7 °C 43.6 °F /  6.4 °C 30.27in /  1024.9hPa ENE 5.0mph /  8km/h 12.0mph /  19.3km/h 42% 0.00in /  0mm
14:35 66.8 °F /  19.3 °C 44.8 °F /  7.1 °C 30.27in /  1024.9hPa NE 6.0mph /  9.7km/h 15.0mph /  24.1km/h 45% 0.00in /  0mm
14:40 66.1 °F /  18.9 °C 44.7 °F /  7.1 °C 30.27in /  1024.9hPa NE 10.0mph /  16.1km/h 15.0mph /  24.1km/h 46% 0.00in /  0mm
14:45 66.0 °F /  18.9 °C 45.7 °F /  7.6 °C 30.27in /  1024.9hPa NE 7.0mph /  11.3km/h 14.0mph /  22.5km/h 48% 0.00in /  0mm
14:50 65.9 °F /  18.8 °C 45.6 °F /  7.6 °C 30.27in /  1024.9hPa NE 11.0mph /  17.7km/h 17.0mph /  27.4km/h 48% 0.00in /  0mm
14:55 65.8 °F /  18.8 °C 45.6 °F /  7.6 °C 30.27in /  1024.9hPa NE 7.0mph /  11.3km/h 17.0mph /  27.4km/h 48% 0.00in /  0mm
15:00 65.6 °F /  18.7 °C 45.4 °F /  7.4 °C 30.27in /  1024.9hPa NE 7.0mph /  11.3km/h 19.0mph /  30.6km/h 48% 0.00in /  0mm
15:05 65.4 °F /  18.6 °C 45.7 °F /  7.6 °C 30.28in /  1025.3hPa NE 9.0mph /  14.5km/h 19.0mph /  30.6km/h 49% 0.00in /  0mm
15:10 65.2 °F /  18.4 °C 45.0 °F /  7.2 °C 30.27in /  1024.9hPa NE 10.0mph /  16.1km/h 18.0mph /  29km/h 48% 0.00in /  0mm
15:15 65.8 °F /  18.8 °C 45.6 °F /  7.6 °C 30.27in /  1024.9hPa NE 9.0mph /  14.5km/h 18.0mph /  29km/h 48% 0.00in /  0mm
15:20 66.1 °F /  18.9 °C 45.3 °F /  7.4 °C 30.27in /  1024.9hPa NE 9.0mph /  14.5km/h 17.0mph /  27.4km/h 47% 0.00in /  0mm
15:25 65.5 °F /  18.6 °C 44.7 °F /  7.1 °C 30.27in /  1024.9hPa NNE 5.0mph /  8km/h 15.0mph /  24.1km/h 47% 0.00in /  0mm
15:30 65.4 °F /  18.6 °C 46.8 °F /  8.2 °C 30.27in /  1024.9hPa NNE 4.0mph /  6.4km/h 16.0mph /  25.7km/h 51% 0.00in /  0mm
15:35 65.3 °F /  18.5 °C 44.5 °F /  6.9 °C 30.27in /  1024.9hPa NE 8.0mph /  12.9km/h 17.0mph /  27.4km/h 47% 0.00in /  0mm
15:40 65.3 °F /  18.5 °C 45.6 °F /  7.6 °C 30.27in /  1024.9hPa NE 9.0mph /  14.5km/h 17.0mph /  27.4km/h 49% 0.00in /  0mm
15:45 64.8 °F /  18.2 °C 45.2 °F /  7.3 °C 30.27in /  1024.9hPa NNE 3.0mph /  4.8km/h 18.0mph /  29km/h 49% 0.00in /  0mm
15:50 65.0 °F /  18.3 °C 44.8 °F /  7.1 °C 30.27in /  1024.9hPa NE 7.0mph /  11.3km/h 17.0mph /  27.4km/h 48% 0.00in /  0mm
15:55 64.9 °F /  18.3 °C 46.3 °F /  7.9 °C 30.26in /  1024.6hPa NE 9.0mph /  14.5km/h 20.0mph /  32.2km/h 51% 0.00in /  0mm
16:00 65.1 °F /  18.4 °C 44.4 °F /  6.9 °C 30.26in /  1024.6hPa NE 9.0mph /  14.5km/h 20.0mph /  32.2km/h 47% 0.00in /  0mm
16:05 65.0 °F /  18.3 °C 45.9 °F /  7.7 °C 30.26in /  1024.6hPa NE 8.0mph /  12.9km/h 15.0mph /  24.1km/h 50% 0.00in /  0mm
16:10 65.5 °F /  18.6 °C 44.7 °F /  7.1 °C 30.25in /  1024.3hPa NE 7.0mph /  11.3km/h 14.0mph /  22.5km/h 47% 0.00in /  0mm
16:15 65.5 °F /  18.6 °C 44.7 °F /  7.1 °C 30.25in /  1024.3hPa NE 7.0mph /  11.3km/h 19.0mph /  30.6km/h 47% 0.00in /  0mm
16:20 65.0 °F /  18.3 °C 44.3 °F /  6.8 °C 30.26in /  1024.6hPa NE 8.0mph /  12.9km/h 17.0mph /  27.4km/h 47% 0.00in /  0mm
16:25 64.4 °F /  18 °C 44.3 °F /  6.8 °C 30.26in /  1024.6hPa ENE 12.0mph /  19.3km/h 16.0mph /  25.7km/h 48% 0.00in /  0mm
16:30 63.8 °F /  17.7 °C 44.3 °F /  6.8 °C 30.25in /  1024.3hPa East 13.0mph /  20.9km/h 16.0mph /  25.7km/h 49% 0.00in /  0mm
16:35 63.7 °F /  17.6 °C 43.1 °F /  6.2 °C 30.26in /  1024.6hPa ENE 5.0mph /  8km/h 17.0mph /  27.4km/h 47% 0.00in /  0mm
16:40 63.2 °F /  17.3 °C 43.2 °F /  6.2 °C 30.26in /  1024.6hPa NNE 5.0mph /  8km/h 16.0mph /  25.7km/h 48% 0.00in /  0mm
16:45 63.8 °F /  17.7 °C 44.8 °F /  7.1 °C 30.25in /  1024.3hPa ENE 8.0mph /  12.9km/h 14.0mph /  22.5km/h 50% 0.00in /  0mm
16:50 64.1 °F /  17.8 °C 43.4 °F /  6.3 °C 30.25in /  1024.3hPa NE 5.0mph /  8km/h 16.0mph /  25.7km/h 47% 0.00in /  0mm
16:55 64.5 °F /  18.1 °C 44.4 °F /  6.9 °C 30.25in /  1024.3hPa NE 6.0mph /  9.7km/h 14.0mph /  22.5km/h 48% 0.00in /  0mm
17:00 65.2 °F /  18.4 °C 45.5 °F /  7.5 °C 30.25in /  1024.3hPa NE 7.0mph /  11.3km/h 14.0mph /  22.5km/h 49% 0.00in /  0mm
17:05 64.4 °F /  18 °C 43.2 °F /  6.2 °C 30.24in /  1023.9hPa NE 8.0mph /  12.9km/h 18.0mph /  29km/h 46% 0.00in /  0mm
17:10 63.8 °F /  17.7 °C 43.2 °F /  6.2 °C 30.25in /  1024.3hPa NE 9.0mph /  14.5km/h 18.0mph /  29km/h 47% 0.00in /  0mm
17:15 63.7 °F /  17.6 °C 43.1 °F /  6.2 °C 30.24in /  1023.9hPa NE 8.0mph /  12.9km/h 17.0mph /  27.4km/h 47% 0.00in /  0mm
17:20 63.3 °F /  17.4 °C 43.8 °F /  6.6 °C 30.24in /  1023.9hPa NE 9.0mph /  14.5km/h 16.0mph /  25.7km/h 49% 0.00in /  0mm
17:25 63.6 °F /  17.6 °C 43.5 °F /  6.4 °C 30.24in /  1023.9hPa NE 4.0mph /  6.4km/h 18.0mph /  29km/h 48% 0.00in /  0mm
17:30 63.9 °F /  17.7 °C 43.8 °F /  6.6 °C 30.24in /  1023.9hPa ENE 8.0mph /  12.9km/h 18.0mph /  29km/h 48% 0.00in /  0mm
17:35 63.8 °F /  17.7 °C 43.7 °F /  6.5 °C 30.24in /  1023.9hPa ENE 8.0mph /  12.9km/h 21.0mph /  33.8km/h 48% 0.00in /  0mm
17:40 63.2 °F /  17.3 °C 42.6 °F /  5.9 °C 30.24in /  1023.9hPa NE 13.0mph /  20.9km/h 20.0mph /  32.2km/h 47% 0.00in /  0mm
17:45 63.1 °F /  17.3 °C 44.2 °F /  6.8 °C 30.24in /  1023.9hPa NE 7.0mph /  11.3km/h 20.0mph /  32.2km/h 50% 0.00in /  0mm
17:50 62.8 °F /  17.1 °C 43.3 °F /  6.3 °C 30.24in /  1023.9hPa NE 15.0mph /  24.1km/h 17.0mph /  27.4km/h 49% 0.00in /  0mm
17:55 62.6 °F /  17 °C 42.6 °F /  5.9 °C 30.24in /  1023.9hPa NE 7.0mph /  11.3km/h 17.0mph /  27.4km/h 48% 0.00in /  0mm
18:00 62.5 °F /  16.9 °C 42.5 °F /  5.8 °C 30.23in /  1023.6hPa NE 10.0mph /  16.1km/h 18.0mph /  29km/h 48% 0.00in /  0mm
18:05 62.4 °F /  16.9 °C 42.4 °F /  5.8 °C 30.23in /  1023.6hPa NE 11.0mph /  17.7km/h 18.0mph /  29km/h 48% 0.00in /  0mm
18:10 62.5 °F /  16.9 °C 43.1 °F /  6.2 °C 30.23in /  1023.6hPa ENE 11.0mph /  17.7km/h 18.0mph /  29km/h 49% 0.00in /  0mm
18:15 62.5 °F /  16.9 °C 43.1 °F /  6.2 °C 30.24in /  1023.9hPa ENE 11.0mph /  17.7km/h 14.0mph /  22.5km/h 49% 0.00in /  0mm
18:20 62.1 °F /  16.7 °C 42.7 °F /  5.9 °C 30.23in /  1023.6hPa NNE 8.0mph /  12.9km/h 16.0mph /  25.7km/h 49% 0.00in /  0mm
18:25 62.1 °F /  16.7 °C 42.7 °F /  5.9 °C 30.23in /  1023.6hPa NE 9.0mph /  14.5km/h 16.0mph /  25.7km/h 49% 0.00in /  0mm
18:30 62.2 °F /  16.8 °C 42.8 °F /  6 °C 30.23in /  1023.6hPa NE 12.0mph /  19.3km/h 18.0mph /  29km/h 49% 0.00in /  0mm
18:35 62.0 °F /  16.7 °C 42.6 °F /  5.9 °C 30.23in /  1023.6hPa NE 8.0mph /  12.9km/h 18.0mph /  29km/h 49% 0.00in /  0mm
18:40 61.8 °F /  16.6 °C 42.4 °F /  5.8 °C 30.23in /  1023.6hPa NE 9.0mph /  14.5km/h 18.0mph /  29km/h 49% 0.00in /  0mm
18:45 61.6 °F /  16.4 °C 43.3 °F /  6.3 °C 30.23in /  1023.6hPa East 9.0mph /  14.5km/h 18.0mph /  29km/h 51% 0.00in /  0mm
18:50 61.8 °F /  16.6 °C 43.0 °F /  6.1 °C 30.23in /  1023.6hPa ENE 11.0mph /  17.7km/h 19.0mph /  30.6km/h 50% 0.00in /  0mm
18:55 61.3 °F /  16.3 °C 42.5 °F /  5.8 °C 30.23in /  1023.6hPa NE 8.0mph /  12.9km/h 17.0mph /  27.4km/h 50% 0.00in /  0mm
19:00 61.1 °F /  16.2 °C 43.3 °F /  6.3 °C 30.23in /  1023.6hPa ENE 8.0mph /  12.9km/h 16.0mph /  25.7km/h 52% 0.00in /  0mm
19:05 61.0 °F /  16.1 °C 42.7 °F /  5.9 °C 30.23in /  1023.6hPa NE 12.0mph /  19.3km/h 18.0mph /  29km/h 51% 0.00in /  0mm
19:10 60.9 °F /  16.1 °C 42.6 °F /  5.9 °C 30.23in /  1023.6hPa NE 7.0mph /  11.3km/h 19.0mph /  30.6km/h 51% 0.00in /  0mm
19:15 60.5 °F /  15.8 °C 42.3 °F /  5.7 °C 30.23in /  1023.6hPa ENE 5.0mph /  8km/h 13.0mph /  20.9km/h 51% 0.00in /  0mm
19:20 60.1 °F /  15.6 °C 42.4 °F /  5.8 °C 30.23in /  1023.6hPa ENE 4.0mph /  6.4km/h 16.0mph /  25.7km/h 52% 0.00in /  0mm
19:25 59.8 °F /  15.4 °C 42.6 °F /  5.9 °C 30.23in /  1023.6hPa ENE 8.0mph /  12.9km/h 16.0mph /  25.7km/h 53% 0.00in /  0mm
19:30 59.6 °F /  15.3 °C 42.4 °F /  5.8 °C 30.23in /  1023.6hPa ENE 6.0mph /  9.7km/h 13.0mph /  20.9km/h 53% 0.00in /  0mm
19:35 59.5 °F /  15.3 °C 42.3 °F /  5.7 °C 30.23in /  1023.6hPa ENE 6.0mph /  9.7km/h 13.0mph /  20.9km/h 53% 0.00in /  0mm
19:40 59.4 °F /  15.2 °C 42.3 °F /  5.7 °C 30.23in /  1023.6hPa ENE 6.0mph /  9.7km/h 13.0mph /  20.9km/h 53% 0.00in /  0mm
19:45 59.3 °F /  15.2 °C 42.2 °F /  5.7 °C 30.23in /  1023.6hPa ENE 5.0mph /  8km/h 11.0mph /  17.7km/h 53% 0.00in /  0mm
19:50 59.2 °F /  15.1 °C 42.1 °F /  5.6 °C 30.23in /  1023.6hPa ENE 5.0mph /  8km/h 13.0mph /  20.9km/h 53% 0.00in /  0mm
19:55 59.2 °F /  15.1 °C 42.1 °F /  5.6 °C 30.23in /  1023.6hPa NE 4.0mph /  6.4km/h 11.0mph /  17.7km/h 53% 0.00in /  0mm
20:00 59.1 °F /  15.1 °C 42.0 °F /  5.6 °C 30.23in /  1023.6hPa ENE 5.0mph /  8km/h 11.0mph /  17.7km/h 53% 0.00in /  0mm
20:05 58.8 °F /  14.9 °C 41.7 °F /  5.4 °C 30.22in /  1023.2hPa ENE 3.0mph /  4.8km/h 14.0mph /  22.5km/h 53% 0.00in /  0mm
20:10 58.6 °F /  14.8 °C 42.0 °F /  5.6 °C 30.23in /  1023.6hPa NE 5.0mph /  8km/h 13.0mph /  20.9km/h 54% 0.00in /  0mm
20:15 58.5 °F /  14.7 °C 41.9 °F /  5.5 °C 30.23in /  1023.6hPa ENE 3.0mph /  4.8km/h 15.0mph /  24.1km/h 54% 0.00in /  0mm
20:20 58.4 °F /  14.7 °C 41.3 °F /  5.2 °C 30.24in /  1023.9hPa ENE 7.0mph /  11.3km/h 13.0mph /  20.9km/h 53% 0.00in /  0mm
20:25 58.1 °F /  14.5 °C 41.0 °F /  5 °C 30.24in /  1023.9hPa East 6.0mph /  9.7km/h 14.0mph /  22.5km/h 53% 0.00in /  0mm
20:30 57.9 °F /  14.4 °C 40.9 °F /  4.9 °C 30.23in /  1023.6hPa ENE 6.0mph /  9.7km/h 14.0mph /  22.5km/h 53% 0.00in /  0mm
20:35 57.7 °F /  14.3 °C 40.7 °F /  4.8 °C 30.23in /  1023.6hPa ENE 5.0mph /  8km/h 12.0mph /  19.3km/h 53% 0.00in /  0mm
20:40 57.4 °F /  14.1 °C 39.9 °F /  4.4 °C 30.23in /  1023.6hPa ENE 5.0mph /  8km/h 11.0mph /  17.7km/h 52% 0.00in /  0mm
20:45 57.3 °F /  14.1 °C 39.8 °F /  4.3 °C 30.23in /  1023.6hPa NE 8.0mph /  12.9km/h 14.0mph /  22.5km/h 52% 0.00in /  0mm
20:50 57.1 °F /  13.9 °C 40.1 °F /  4.5 °C 30.22in /  1023.2hPa NE 5.0mph /  8km/h 13.0mph /  20.9km/h 53% 0.00in /  0mm
20:55 57.0 °F /  13.9 °C 40.0 °F /  4.4 °C 30.22in /  1023.2hPa ENE 7.0mph /  11.3km/h 13.0mph /  20.9km/h 53% 0.00in /  0mm
21:00 56.9 °F /  13.8 °C 39.9 °F /  4.4 °C 30.22in /  1023.2hPa ENE 6.0mph /  9.7km/h 14.0mph /  22.5km/h 53% 0.00in /  0mm
21:05 56.7 °F /  13.7 °C 39.7 °F /  4.3 °C 30.22in /  1023.2hPa ENE 6.0mph /  9.7km/h 15.0mph /  24.1km/h 53% 0.00in /  0mm
21:10 56.5 °F /  13.6 °C 39.6 °F /  4.2 °C 30.21in /  1022.9hPa ENE 9.0mph /  14.5km/h 11.0mph /  17.7km/h 53% 0.00in /  0mm
21:15 56.4 °F /  13.6 °C 40.0 °F /  4.4 °C 30.21in /  1022.9hPa East 6.0mph /  9.7km/h 14.0mph /  22.5km/h 54% 0.00in /  0mm
21:20 56.3 °F /  13.5 °C 39.9 °F /  4.4 °C 30.20in /  1022.6hPa ENE 4.0mph /  6.4km/h 15.0mph /  24.1km/h 54% 0.00in /  0mm
21:25 56.2 °F /  13.4 °C 39.8 °F /  4.3 °C 30.20in /  1022.6hPa ENE 6.0mph /  9.7km/h 15.0mph /  24.1km/h 54% 0.00in /  0mm
21:30 56.1 °F /  13.4 °C 39.7 °F /  4.3 °C 30.20in /  1022.6hPa ENE 6.0mph /  9.7km/h 13.0mph /  20.9km/h 54% 0.00in /  0mm
21:35 56.1 °F /  13.4 °C 39.7 °F /  4.3 °C 30.19in /  1022.2hPa ENE 6.0mph /  9.7km/h 14.0mph /  22.5km/h 54% 0.00in /  0mm
21:40 56.1 °F /  13.4 °C 39.7 °F /  4.3 °C 30.19in /  1022.2hPa NE 7.0mph /  11.3km/h 12.0mph /  19.3km/h 54% 0.00in /  0mm
21:45 56.1 °F /  13.4 °C 39.7 °F /  4.3 °C 30.19in /  1022.2hPa ENE 3.0mph /  4.8km/h 12.0mph /  19.3km/h 54% 0.00in /  0mm
21:50 56.1 °F /  13.4 °C 39.7 °F /  4.3 °C 30.20in /  1022.6hPa NE 5.0mph /  8km/h 17.0mph /  27.4km/h 54% 0.00in /  0mm
21:55 56.1 °F /  13.4 °C 39.7 °F /  4.3 °C 30.20in /  1022.6hPa ENE 7.0mph /  11.3km/h 17.0mph /  27.4km/h 54% 0.00in /  0mm
22:00 56.1 °F /  13.4 °C 40.1 °F /  4.5 °C 30.21in /  1022.9hPa ENE 6.0mph /  9.7km/h 13.0mph /  20.9km/h 55% 0.00in /  0mm
22:05 56.1 °F /  13.4 °C 40.1 °F /  4.5 °C 30.21in /  1022.9hPa ENE 5.0mph /  8km/h 9.0mph /  14.5km/h 55% 0.00in /  0mm
22:10 56.2 °F /  13.4 °C 40.2 °F /  4.6 °C 30.20in /  1022.6hPa ENE 5.0mph /  8km/h 15.0mph /  24.1km/h 55% 0.00in /  0mm
22:15 56.3 °F /  13.5 °C 39.9 °F /  4.4 °C 30.21in /  1022.9hPa ENE 5.0mph /  8km/h 13.0mph /  20.9km/h 54% 0.00in /  0mm
22:20 56.4 °F /  13.6 °C 40.0 °F /  4.4 °C 30.21in /  1022.9hPa East 7.0mph /  11.3km/h 10.0mph /  16.1km/h 54% 0.00in /  0mm
22:25 56.4 °F /  13.6 °C 40.4 °F /  4.7 °C 30.20in /  1022.6hPa ENE 6.0mph /  9.7km/h 14.0mph /  22.5km/h 55% 0.00in /  0mm
22:30 56.5 °F /  13.6 °C 40.5 °F /  4.7 °C 30.20in /  1022.6hPa ESE 3.0mph /  4.8km/h 16.0mph /  25.7km/h 55% 0.00in /  0mm
22:35 56.5 °F /  13.6 °C 40.0 °F /  4.4 °C 30.20in /  1022.6hPa ENE 4.0mph /  6.4km/h 11.0mph /  17.7km/h 54% 0.00in /  0mm
22:40 56.6 °F /  13.7 °C 40.1 °F /  4.5 °C 30.20in /  1022.6hPa ESE 5.0mph /  8km/h 14.0mph /  22.5km/h 54% 0.00in /  0mm
22:45 56.6 °F /  13.7 °C 40.1 °F /  4.5 °C 30.20in /  1022.6hPa East 6.0mph /  9.7km/h 14.0mph /  22.5km/h 54% 0.00in /  0mm
22:50 56.6 °F /  13.7 °C 40.1 °F /  4.5 °C 30.20in /  1022.6hPa NE 3.0mph /  4.8km/h 9.0mph /  14.5km/h 54% 0.00in /  0mm
22:55 56.5 °F /  13.6 °C 40.0 °F /  4.4 °C 30.20in /  1022.6hPa ENE 7.0mph /  11.3km/h 9.0mph /  14.5km/h 54% 0.00in /  0mm
23:00 56.6 °F /  13.7 °C 40.1 °F /  4.5 °C 30.21in /  1022.9hPa East 5.0mph /  8km/h 14.0mph /  22.5km/h 54% 0.00in /  0mm
23:05 56.7 °F /  13.7 °C 39.7 °F /  4.3 °C 30.21in /  1022.9hPa East 5.0mph /  8km/h 14.0mph /  22.5km/h 53% 0.00in /  0mm
23:10 56.7 °F /  13.7 °C 39.7 °F /  4.3 °C 30.22in /  1023.2hPa ENE 4.0mph /  6.4km/h 10.0mph /  16.1km/h 53% 0.00in /  0mm
23:15 56.9 °F /  13.8 °C 39.4 °F /  4.1 °C 30.21in /  1022.9hPa ENE 4.0mph /  6.4km/h 10.0mph /  16.1km/h 52% 0.00in /  0mm
23:20 56.9 °F /  13.8 °C 39.4 °F /  4.1 °C 30.21in /  1022.9hPa ENE 5.0mph /  8km/h 13.0mph /  20.9km/h 52% 0.00in /  0mm
23:25 57.0 °F /  13.9 °C 39.0 °F /  3.9 °C 30.21in /  1022.9hPa ENE 5.0mph /  8km/h 13.0mph /  20.9km/h 51% 0.00in /  0mm
23:30 57.0 °F /  13.9 °C 39.0 °F /  3.9 °C 30.21in /  1022.9hPa East 7.0mph /  11.3km/h 10.0mph /  16.1km/h 51% 0.00in /  0mm
23:35 57.1 °F /  13.9 °C 39.1 °F /  3.9 °C 30.21in /  1022.9hPa East 6.0mph /  9.7km/h 10.0mph /  16.1km/h 51% 0.00in /  0mm
23:40 57.2 °F /  14 °C 39.2 °F /  4 °C 30.21in /  1022.9hPa East 5.0mph /  8km/h 10.0mph /  16.1km/h 51% 0.00in /  0mm
23:45 57.1 °F /  13.9 °C 39.6 °F /  4.2 °C 30.21in /  1022.9hPa East 9.0mph /  14.5km/h 10.0mph /  16.1km/h 52% 0.00in /  0mm
23:50 57.1 °F /  13.9 °C 39.6 °F /  4.2 °C 30.21in /  1022.9hPa ENE 4.0mph /  6.4km/h 10.0mph /  16.1km/h 52% 0.00in /  0mm
23:55 57.0 °F /  13.9 °C 40.0 °F /  4.4 °C 30.20in /  1022.6hPa NE 10.0mph /  16.1km/h 10.0mph /  16.1km/h 53% 0.00in /  0mm
Buffalo, New York, USA
Compliments of Weather Underground - 2.5 mb